createdAt,value
2019-03-21T00:00:01.079Z,11.32
2019-03-21T00:02:32.312Z,11.06
2019-03-21T00:05:03.246Z,11.18
2019-03-21T00:07:34.030Z,11.18
2019-03-21T00:10:37.325Z,11.05
2019-03-21T00:13:08.479Z,11.08
2019-03-21T00:15:41.854Z,11.06
2019-03-21T00:18:14.149Z,11.18
2019-03-21T00:20:45.438Z,11.01
2019-03-21T00:23:16.619Z,11.09
2019-03-21T00:25:48.220Z,11.04
2019-03-21T00:28:19.009Z,10.88
2019-03-21T00:30:50.370Z,10.61
2019-03-21T00:33:21.584Z,10.58
2019-03-21T00:35:52.326Z,10.65
2019-03-21T00:38:23.412Z,10.35
2019-03-21T00:40:54.569Z,10.40
2019-03-21T00:43:25.804Z,10.40
2019-03-21T00:45:56.805Z,10.26
2019-03-21T00:48:27.981Z,10.35
2019-03-21T00:50:59.043Z,10.30
2019-03-21T00:53:30.470Z,10.26
2019-03-21T00:56:01.693Z,10.16
2019-03-21T00:58:32.586Z,9.96
2019-03-21T01:01:03.708Z,9.95
2019-03-21T01:03:34.535Z,10.11
2019-03-21T01:06:05.774Z,10.07
2019-03-21T01:08:36.760Z,10.00
2019-03-21T01:11:07.799Z,9.84
2019-03-21T01:13:38.711Z,9.83
2019-03-21T01:16:09.795Z,9.69
2019-03-21T01:18:41.316Z,9.43
2019-03-21T01:21:12.734Z,9.50
2019-03-21T01:23:43.990Z,9.49
2019-03-21T01:26:15.381Z,9.69
2019-03-21T01:28:46.793Z,9.51
2019-03-21T01:31:17.903Z,9.39
2019-03-21T01:33:48.954Z,9.35
2019-03-21T01:36:21.127Z,9.18
2019-03-21T01:38:52.132Z,9.42
2019-03-21T01:41:23.345Z,9.48
2019-03-21T01:43:54.653Z,9.45
2019-03-21T01:46:25.691Z,9.11
2019-03-21T01:48:56.708Z,9.18
2019-03-21T01:51:27.799Z,9.20
2019-03-21T01:53:59.063Z,9.15
2019-03-21T01:56:30.658Z,9.10
2019-03-21T01:59:01.602Z,9.04
2019-03-21T02:01:32.805Z,8.89
2019-03-21T02:04:04.133Z,8.92
2019-03-21T02:06:34.980Z,8.90
2019-03-21T02:09:08.740Z,8.88
2019-03-21T02:11:41.033Z,8.76
2019-03-21T02:14:12.487Z,8.53
2019-03-21T02:16:43.540Z,8.62
2019-03-21T02:19:14.593Z,8.91
2019-03-21T02:21:45.466Z,8.93
2019-03-21T02:24:16.236Z,8.90
2019-03-21T02:26:47.217Z,8.76
2019-03-21T02:29:18.554Z,8.71
2019-03-21T02:31:49.739Z,8.88
2019-03-21T02:34:20.893Z,8.87
2019-03-21T02:36:52.350Z,8.65
2019-03-21T02:39:23.650Z,8.73
2019-03-21T02:41:54.573Z,8.69
2019-03-21T02:44:25.645Z,8.60
2019-03-21T02:46:57.014Z,8.63
2019-03-21T02:49:28.384Z,8.62
2019-03-21T02:51:59.246Z,8.60
2019-03-21T02:54:30.508Z,8.51
2019-03-21T02:57:01.598Z,8.47
2019-03-21T02:59:32.470Z,8.30
2019-03-21T03:02:03.826Z,8.35
2019-03-21T03:04:35.162Z,8.61
2019-03-21T03:07:06.054Z,8.50
2019-03-21T03:09:37.810Z,8.38
2019-03-21T03:12:09.071Z,8.20
2019-03-21T03:14:40.004Z,8.07
2019-03-21T03:17:11.117Z,7.95
2019-03-21T03:19:41.861Z,8.23
2019-03-21T03:22:13.282Z,8.36
2019-03-21T03:24:44.258Z,8.33
2019-03-21T03:27:15.249Z,8.44
2019-03-21T03:29:46.377Z,8.47
2019-03-21T03:32:17.657Z,8.48
2019-03-21T03:34:48.986Z,8.50
2019-03-21T03:37:20.023Z,8.48
2019-03-21T03:39:51.188Z,8.50
2019-03-21T03:42:21.991Z,8.49
2019-03-21T03:44:53.132Z,8.31
2019-03-21T03:47:24.508Z,8.21
2019-03-21T03:49:55.852Z,8.56
2019-03-21T03:52:26.709Z,8.75
2019-03-21T03:54:58.019Z,8.63
2019-03-21T03:57:29.557Z,8.69
2019-03-21T04:00:00.877Z,8.83
2019-03-21T04:02:31.736Z,8.99
2019-03-21T04:05:02.361Z,9.23
2019-03-21T04:07:33.309Z,9.26
2019-03-21T04:10:05.043Z,9.24
2019-03-21T04:12:36.171Z,9.04
2019-03-21T04:15:07.888Z,8.96
2019-03-21T04:17:39.126Z,9.06
2019-03-21T04:20:12.224Z,9.34
2019-03-21T04:22:43.511Z,9.31
2019-03-21T04:25:16.818Z,9.32
2019-03-21T04:27:48.008Z,9.39
2019-03-21T04:30:19.247Z,9.48
2019-03-21T04:32:50.522Z,9.41
2019-03-21T04:35:21.632Z,9.48
2019-03-21T04:37:52.752Z,9.62
2019-03-21T04:40:23.958Z,9.68
2019-03-21T04:42:55.054Z,9.59
2019-03-21T04:45:26.041Z,9.50
2019-03-21T04:47:56.933Z,9.33
2019-03-21T04:50:28.677Z,9.50
2019-03-21T04:52:59.632Z,9.55
2019-03-21T04:55:30.953Z,9.73
2019-03-21T04:58:02.219Z,9.70
2019-03-21T05:00:34.521Z,9.77
2019-03-21T05:03:06.239Z,9.81
2019-03-21T05:05:37.214Z,9.94
2019-03-21T05:08:08.322Z,9.72
2019-03-21T05:10:39.606Z,9.80
2019-03-21T05:13:10.590Z,9.96
2019-03-21T05:15:41.833Z,10.09
2019-03-21T05:18:16.145Z,10.16
2019-03-21T05:20:47.496Z,10.28
2019-03-21T05:23:18.693Z,10.30
2019-03-21T05:25:49.754Z,10.42
2019-03-21T05:28:21.050Z,10.50
2019-03-21T05:30:58.030Z,10.61
2019-03-21T05:33:29.158Z,10.66
2019-03-21T05:36:00.162Z,10.68
2019-03-21T05:38:31.887Z,10.77
2019-03-21T05:41:02.900Z,10.88
2019-03-21T05:43:40.805Z,10.88
2019-03-21T05:46:12.000Z,11.08
2019-03-21T05:48:43.304Z,11.13
2019-03-21T05:51:14.398Z,11.33
2019-03-21T05:53:45.415Z,11.39
2019-03-21T05:56:16.631Z,11.47
2019-03-21T05:58:47.913Z,11.55
2019-03-21T06:01:19.260Z,11.65
2019-03-21T06:03:47.932Z,11.68
2019-03-21T06:06:22.840Z,11.66
2019-03-21T06:08:54.028Z,11.68
2019-03-21T06:11:25.330Z,11.81
2019-03-21T06:13:56.275Z,11.94
2019-03-21T06:16:37.234Z,12.07
2019-03-21T06:19:11.001Z,12.08
2019-03-21T06:22:15.829Z,12.03
2019-03-21T06:25:28.631Z,12.21
2019-03-21T06:27:59.759Z,12.34
2019-03-21T06:30:30.593Z,12.54
2019-03-21T06:33:01.472Z,12.65
2019-03-21T06:35:32.613Z,12.69
2019-03-21T06:38:03.712Z,12.77
2019-03-21T06:40:34.865Z,12.82
2019-03-21T06:43:05.998Z,12.93
2019-03-21T06:45:47.528Z,12.90
2019-03-21T06:48:10.443Z,13.04
2019-03-21T06:50:41.509Z,13.16
2019-03-21T06:53:12.435Z,13.26
2019-03-21T06:55:43.667Z,13.16
2019-03-21T06:58:14.929Z,13.31
2019-03-21T07:00:45.864Z,13.47
2019-03-21T07:03:16.964Z,13.67
2019-03-21T07:05:47.926Z,13.67
2019-03-21T07:08:19.017Z,13.83
2019-03-21T07:10:50.188Z,14.08
2019-03-21T07:13:21.427Z,14.26
2019-03-21T07:15:52.606Z,14.34
2019-03-21T07:18:23.668Z,14.37
2019-03-21T07:20:55.042Z,14.43
2019-03-21T07:23:26.146Z,14.48
2019-03-21T07:25:57.175Z,15.08
2019-03-21T07:28:28.379Z,16.43
2019-03-21T07:31:00.646Z,17.90
2019-03-21T07:33:31.851Z,18.95
2019-03-21T07:36:02.813Z,19.36
2019-03-21T07:38:33.829Z,19.34
2019-03-21T07:41:04.955Z,19.19
2019-03-21T07:43:35.963Z,19.64
2019-03-21T07:46:06.948Z,20.36
2019-03-21T07:48:38.207Z,21.22
2019-03-21T07:51:09.329Z,22.04
2019-03-21T07:53:40.186Z,22.86
2019-03-21T07:56:10.920Z,23.39
2019-03-21T07:58:45.226Z,23.84
2019-03-21T08:01:16.371Z,24.02
2019-03-21T08:03:47.566Z,24.30
2019-03-21T08:06:18.664Z,25.11
2019-03-21T08:08:49.964Z,25.13
2019-03-21T08:11:20.678Z,25.82
2019-03-21T08:13:51.680Z,25.02
2019-03-21T08:16:22.706Z,23.88
2019-03-21T08:18:53.897Z,24.77
2019-03-21T08:21:25.079Z,26.12
2019-03-21T08:23:56.343Z,26.96
2019-03-21T08:26:27.395Z,27.40
2019-03-21T08:28:58.382Z,27.31
2019-03-21T08:31:29.505Z,27.31
2019-03-21T08:34:00.617Z,26.64
2019-03-21T08:36:31.607Z,25.49
2019-03-21T08:39:02.585Z,24.71
2019-03-21T08:41:33.970Z,23.93
2019-03-21T08:44:04.868Z,23.24
2019-03-21T08:46:35.898Z,22.89
2019-03-21T08:49:06.894Z,22.71
2019-03-21T08:51:37.886Z,22.64
2019-03-21T08:54:08.838Z,22.95
2019-03-21T08:56:39.834Z,23.15
2019-03-21T08:59:10.428Z,23.58
2019-03-21T09:01:41.531Z,23.63
2019-03-21T09:04:12.533Z,24.12
2019-03-21T09:06:43.267Z,24.89
2019-03-21T09:09:14.119Z,25.96
2019-03-21T09:11:44.855Z,26.60
2019-03-21T09:14:15.649Z,27.53
2019-03-21T09:16:46.599Z,28.78
2019-03-21T09:19:17.498Z,30.18
2019-03-21T09:21:48.330Z,31.30
2019-03-21T09:24:18.855Z,30.26
2019-03-21T09:26:49.834Z,31.34
2019-03-21T09:29:20.594Z,31.52
2019-03-21T09:31:51.669Z,31.63
2019-03-21T09:34:22.759Z,30.36
2019-03-21T09:36:53.782Z,29.79
2019-03-21T09:39:24.834Z,30.18
2019-03-21T09:41:55.861Z,29.73
2019-03-21T09:44:30.351Z,29.96
2019-03-21T09:47:01.412Z,30.07
2019-03-21T09:49:32.139Z,30.30
2019-03-21T09:52:03.220Z,31.59
2019-03-21T09:54:34.292Z,32.63
2019-03-21T09:57:05.206Z,33.16
2019-03-21T09:59:35.835Z,33.32
2019-03-21T10:02:07.181Z,32.10
2019-03-21T10:04:38.241Z,30.68
2019-03-21T10:07:09.297Z,28.93
2019-03-21T10:09:40.286Z,27.39
2019-03-21T10:12:11.426Z,26.53
2019-03-21T10:14:42.871Z,25.32
2019-03-21T10:17:13.673Z,24.82
2019-03-21T10:19:44.787Z,25.56
2019-03-21T10:22:16.071Z,27.00
2019-03-21T10:24:47.294Z,29.21
2019-03-21T10:27:18.472Z,31.31
2019-03-21T10:29:49.748Z,32.85
2019-03-21T10:32:21.062Z,32.47
2019-03-21T10:34:52.332Z,31.31
2019-03-21T10:37:23.581Z,32.12
2019-03-21T10:39:54.628Z,33.65
2019-03-21T10:42:25.545Z,34.99
2019-03-21T10:44:56.402Z,36.51
2019-03-21T10:47:27.440Z,37.47
2019-03-21T10:49:58.560Z,37.83
2019-03-21T10:52:29.361Z,35.18
2019-03-21T10:55:00.456Z,35.98
2019-03-21T10:57:31.555Z,36.38
2019-03-21T11:00:02.587Z,35.43
2019-03-21T11:02:33.779Z,34.58
2019-03-21T11:05:05.114Z,33.83
2019-03-21T11:07:36.346Z,33.32
2019-03-21T11:10:08.003Z,33.17
2019-03-21T11:12:38.988Z,33.48
2019-03-21T11:15:10.054Z,33.01
2019-03-21T11:17:41.226Z,33.28
2019-03-21T11:20:14.659Z,33.30
2019-03-21T11:22:45.898Z,32.37
2019-03-21T11:25:17.094Z,33.69
2019-03-21T11:27:48.302Z,35.53
2019-03-21T11:30:22.391Z,36.98
2019-03-21T11:32:53.625Z,37.75
2019-03-21T11:35:24.858Z,37.48
2019-03-21T11:37:56.019Z,37.91
2019-03-21T11:40:27.338Z,38.40
2019-03-21T11:42:58.670Z,37.22
2019-03-21T11:45:29.909Z,36.20
2019-03-21T11:48:01.151Z,36.61
2019-03-21T11:50:32.189Z,36.49
2019-03-21T11:53:03.558Z,36.29
2019-03-21T11:55:34.709Z,35.14
2019-03-21T11:58:05.875Z,35.69
2019-03-21T12:00:44.312Z,36.60
2019-03-21T12:03:10.033Z,37.36
2019-03-21T12:05:41.050Z,37.55
2019-03-21T12:08:12.281Z,37.94
2019-03-21T12:10:43.337Z,38.07
2019-03-21T12:13:14.651Z,38.60
2019-03-21T12:15:45.904Z,37.48
2019-03-21T12:18:16.788Z,37.94
2019-03-21T12:20:47.892Z,37.63
2019-03-21T12:23:19.119Z,37.75
2019-03-21T12:25:50.046Z,38.04
2019-03-21T12:28:20.990Z,38.39
2019-03-21T12:30:52.113Z,37.87
2019-03-21T12:33:23.187Z,37.61
2019-03-21T12:35:54.296Z,37.90
2019-03-21T12:38:25.552Z,37.50
2019-03-21T12:40:59.089Z,35.86
2019-03-21T12:43:30.212Z,35.46
2019-03-21T12:46:02.061Z,36.43
2019-03-21T12:48:33.339Z,36.91
2019-03-21T12:51:04.573Z,37.10
2019-03-21T12:53:35.570Z,37.00
2019-03-21T12:56:07.023Z,36.29
2019-03-21T12:58:38.412Z,35.50
2019-03-21T13:01:09.733Z,35.23
2019-03-21T13:03:40.851Z,34.00
2019-03-21T13:06:12.071Z,32.47
2019-03-21T13:08:46.360Z,31.21
2019-03-21T13:11:17.234Z,32.05
2019-03-21T13:13:48.361Z,30.36
2019-03-21T13:16:19.595Z,28.31
2019-03-21T13:18:50.817Z,28.31
2019-03-21T13:21:21.975Z,25.93
2019-03-21T13:23:53.288Z,25.03
2019-03-21T13:26:24.772Z,25.44
2019-03-21T13:28:55.929Z,25.73
2019-03-21T13:31:27.040Z,25.67
2019-03-21T13:33:58.385Z,25.84
2019-03-21T13:36:31.730Z,26.26
2019-03-21T13:39:02.462Z,25.97
2019-03-21T13:41:33.652Z,26.05
2019-03-21T13:44:04.903Z,26.01
2019-03-21T13:46:36.259Z,26.00
2019-03-21T13:49:07.586Z,25.84
2019-03-21T13:51:38.860Z,25.23
2019-03-21T13:54:09.993Z,24.53
2019-03-21T13:56:40.945Z,23.45
2019-03-21T13:59:12.263Z,23.06
2019-03-21T14:01:43.593Z,22.97
2019-03-21T14:04:14.751Z,23.00
2019-03-21T14:06:45.826Z,22.54
2019-03-21T14:09:17.026Z,22.11
2019-03-21T14:11:48.228Z,22.42
2019-03-21T14:14:19.309Z,22.20
2019-03-21T14:16:51.073Z,22.04
2019-03-21T14:19:22.639Z,21.52
2019-03-21T14:21:54.007Z,20.91
2019-03-21T14:24:25.042Z,21.02
2019-03-21T14:26:56.463Z,20.95
2019-03-21T14:29:27.614Z,20.59
2019-03-21T14:31:58.782Z,20.42
2019-03-21T14:34:30.191Z,19.76
2019-03-21T14:37:01.417Z,19.80
2019-03-21T14:39:32.424Z,19.20
2019-03-21T14:42:03.368Z,19.11
2019-03-21T14:44:34.658Z,19.36
2019-03-21T14:47:06.084Z,19.55
2019-03-21T14:49:37.161Z,19.50
2019-03-21T14:52:08.512Z,19.37
2019-03-21T14:54:39.997Z,19.11
2019-03-21T14:57:11.416Z,19.17
2019-03-21T14:59:42.408Z,18.97
2019-03-21T15:02:13.842Z,18.98
2019-03-21T15:04:45.062Z,18.93
2019-03-21T15:07:18.594Z,18.90
2019-03-21T15:09:49.052Z,18.45
2019-03-21T15:12:20.376Z,18.57
2019-03-21T15:14:51.383Z,18.72
2019-03-21T15:17:22.432Z,18.27
2019-03-21T15:19:53.541Z,18.33
2019-03-21T15:22:24.658Z,18.31
2019-03-21T15:24:55.832Z,18.35
2019-03-21T15:27:26.838Z,18.13
2019-03-21T15:29:58.245Z,18.10
2019-03-21T15:32:29.633Z,18.00
2019-03-21T15:35:00.740Z,17.84
2019-03-21T15:37:32.020Z,17.64
2019-03-21T15:40:03.481Z,17.30
2019-03-21T15:42:34.748Z,17.52
2019-03-21T15:45:21.479Z,17.36
2019-03-21T15:47:41.104Z,17.17
2019-03-21T15:50:16.485Z,17.29
2019-03-21T15:52:47.670Z,17.23
2019-03-21T15:55:19.150Z,17.14
2019-03-21T15:57:50.343Z,17.10
2019-03-21T16:00:30.111Z,17.13
2019-03-21T16:03:01.483Z,17.00
2019-03-21T16:05:32.659Z,17.20
2019-03-21T16:08:03.812Z,17.02
2019-03-21T16:10:34.984Z,16.84
2019-03-21T16:13:06.534Z,16.81
2019-03-21T16:15:38.029Z,16.64
2019-03-21T16:18:09.222Z,16.58
2019-03-21T16:20:40.171Z,16.58
2019-03-21T16:23:10.943Z,16.46
2019-03-21T16:25:42.253Z,16.34
2019-03-21T16:28:13.706Z,16.30
2019-03-21T16:30:44.882Z,16.37
2019-03-21T16:33:18.197Z,16.27
2019-03-21T16:35:49.611Z,16.26
2019-03-21T16:38:20.874Z,16.24
2019-03-21T16:40:51.884Z,16.18
2019-03-21T16:43:22.951Z,16.23
2019-03-21T16:45:54.083Z,15.99
2019-03-21T16:48:25.530Z,15.79
2019-03-21T16:50:56.805Z,15.73
2019-03-21T16:53:27.753Z,15.83
2019-03-21T16:56:01.272Z,15.74
2019-03-21T16:58:32.226Z,15.92
2019-03-21T17:01:03.364Z,15.76
2019-03-21T17:03:34.426Z,15.55
2019-03-21T17:06:05.482Z,15.67
2019-03-21T17:08:36.469Z,15.64
2019-03-21T17:11:07.763Z,15.73
2019-03-21T17:13:39.125Z,15.60
2019-03-21T17:16:09.981Z,15.52
2019-03-21T17:18:41.198Z,15.48
2019-03-21T17:21:12.562Z,15.44
2019-03-21T17:23:43.757Z,15.33
2019-03-21T17:26:16.034Z,15.29
2019-03-21T17:28:48.263Z,15.22
2019-03-21T17:31:19.451Z,15.26
2019-03-21T17:33:50.649Z,15.25
2019-03-21T17:36:21.943Z,15.10
2019-03-21T17:38:52.733Z,15.22
2019-03-21T17:41:23.767Z,15.21
2019-03-21T17:43:55.194Z,15.17
2019-03-21T17:46:26.356Z,15.07
2019-03-21T17:48:57.924Z,14.97
2019-03-21T17:51:29.110Z,15.06
2019-03-21T17:54:00.260Z,14.97
2019-03-21T17:56:31.424Z,14.88
2019-03-21T17:59:02.671Z,14.99
2019-03-21T18:01:33.892Z,14.96
2019-03-21T18:04:05.164Z,14.84
2019-03-21T18:06:36.539Z,14.78
2019-03-21T18:09:08.753Z,14.77
2019-03-21T18:11:39.906Z,14.86
2019-03-21T18:14:11.004Z,14.77
2019-03-21T18:16:42.810Z,14.64
2019-03-21T18:19:13.946Z,14.67
2019-03-21T18:21:45.217Z,14.63
2019-03-21T18:24:16.300Z,14.51
2019-03-21T18:26:47.699Z,14.45
2019-03-21T18:29:18.664Z,14.43
2019-03-21T18:31:50.068Z,14.54
2019-03-21T18:34:21.508Z,14.49
2019-03-21T18:36:52.468Z,14.38
2019-03-21T18:39:23.641Z,14.44
2019-03-21T18:41:56.027Z,14.54
2019-03-21T18:44:27.280Z,14.34
2019-03-21T18:46:58.468Z,14.33
2019-03-21T18:49:31.015Z,14.41
2019-03-21T18:52:02.501Z,14.50
2019-03-21T18:54:33.613Z,14.45
2019-03-21T18:57:04.678Z,14.33
2019-03-21T18:59:35.901Z,14.42
2019-03-21T19:02:07.441Z,14.53
2019-03-21T19:04:40.289Z,14.31
2019-03-21T19:07:12.012Z,14.38
2019-03-21T19:09:44.151Z,14.57
2019-03-21T19:12:15.664Z,14.50
2019-03-21T19:14:47.045Z,14.56
2019-03-21T19:17:18.323Z,14.33
2019-03-21T19:19:49.547Z,14.31
2019-03-21T19:22:20.745Z,14.22
2019-03-21T19:24:52.934Z,14.36
2019-03-21T19:27:24.317Z,14.30
2019-03-21T19:29:55.577Z,14.18
2019-03-21T19:32:26.679Z,14.19
2019-03-21T19:34:57.806Z,14.14
2019-03-21T19:37:29.102Z,14.08
2019-03-21T19:40:00.331Z,14.02
2019-03-21T19:42:32.050Z,14.09
2019-03-21T19:45:03.507Z,14.03
2019-03-21T19:47:36.927Z,14.02
2019-03-21T19:50:09.538Z,14.16
2019-03-21T19:52:40.597Z,14.25
2019-03-21T19:55:11.559Z,14.33
2019-03-21T19:57:42.759Z,14.38
2019-03-21T20:00:16.308Z,14.31
2019-03-21T20:02:47.828Z,14.17
2019-03-21T20:05:19.006Z,13.93
2019-03-21T20:07:50.373Z,13.72
2019-03-21T20:10:22.260Z,13.74
2019-03-21T20:12:53.219Z,13.54
2019-03-21T20:15:24.194Z,13.62
2019-03-21T20:17:55.317Z,13.63
2019-03-21T20:20:26.820Z,13.55
2019-03-21T20:22:57.994Z,13.63
2019-03-21T20:25:29.713Z,13.44
2019-03-21T20:28:01.409Z,13.47
2019-03-21T20:30:33.863Z,13.28
2019-03-21T20:33:04.929Z,13.35
2019-03-21T20:35:36.251Z,13.29
2019-03-21T20:38:08.328Z,13.44
2019-03-21T20:40:39.598Z,13.45
2019-03-21T20:43:10.947Z,13.23
2019-03-21T20:45:42.295Z,13.25
2019-03-21T20:48:13.319Z,13.52
2019-03-21T20:50:44.527Z,13.48
2019-03-21T20:53:15.548Z,13.37
2019-03-21T20:55:53.641Z,13.19
2019-03-21T20:58:19.296Z,13.18
2019-03-21T21:00:50.634Z,13.22
2019-03-21T21:03:21.986Z,13.16
2019-03-21T21:05:53.143Z,13.13
2019-03-21T21:08:24.150Z,13.00
2019-03-21T21:10:55.356Z,12.97
2019-03-21T21:13:26.499Z,13.03
2019-03-21T21:15:57.579Z,13.06
2019-03-21T21:18:28.674Z,13.01
2019-03-21T21:20:59.871Z,13.05
2019-03-21T21:23:30.961Z,13.15
2019-03-21T21:26:05.760Z,13.15
2019-03-21T21:28:35.087Z,13.16
2019-03-21T21:31:06.555Z,13.14
2019-03-21T21:33:37.561Z,13.06
2019-03-21T21:36:08.869Z,13.00
2019-03-21T21:38:39.956Z,12.93
2019-03-21T21:41:11.391Z,12.85
2019-03-21T21:43:42.394Z,12.80
2019-03-21T21:46:13.534Z,12.79
2019-03-21T21:48:44.869Z,12.81
2019-03-21T21:51:15.909Z,12.74
2019-03-21T21:53:47.225Z,12.78
2019-03-21T21:56:18.501Z,12.87
2019-03-21T21:58:49.756Z,12.85
2019-03-21T22:01:21.010Z,12.70
2019-03-21T22:04:03.857Z,12.77
2019-03-21T22:06:25.025Z,12.80
2019-03-21T22:08:56.092Z,12.88
2019-03-21T22:11:27.248Z,12.84
2019-03-21T22:13:58.363Z,12.61
2019-03-21T22:16:29.454Z,12.67
2019-03-21T22:19:00.493Z,12.69
2019-03-21T22:21:31.716Z,12.81
2019-03-21T22:24:02.550Z,12.79
2019-03-21T22:26:35.761Z,12.72
2019-03-21T22:29:07.221Z,12.58
2019-03-21T22:31:38.202Z,12.40
2019-03-21T22:34:09.436Z,12.54
2019-03-21T22:36:49.287Z,12.65
2019-03-21T22:39:13.659Z,12.45
2019-03-21T22:41:44.858Z,12.58
2019-03-21T22:44:16.218Z,12.62
2019-03-21T22:46:47.471Z,12.68
2019-03-21T22:49:18.551Z,12.60
2019-03-21T22:51:49.661Z,12.52
2019-03-21T22:54:21.452Z,12.43
2019-03-21T22:56:52.555Z,12.41
2019-03-21T22:59:23.352Z,12.50
2019-03-21T23:01:54.383Z,12.33
2019-03-21T23:04:25.640Z,12.34
2019-03-21T23:06:56.687Z,12.37
2019-03-21T23:09:27.796Z,12.19
2019-03-21T23:11:59.017Z,12.16
2019-03-21T23:14:30.066Z,12.09
2019-03-21T23:17:01.228Z,11.91
2019-03-21T23:19:32.356Z,11.62
2019-03-21T23:22:03.500Z,11.52
2019-03-21T23:24:34.296Z,11.55
2019-03-21T23:27:05.358Z,11.68
2019-03-21T23:29:36.724Z,11.61
2019-03-21T23:32:07.963Z,11.65
2019-03-21T23:34:39.097Z,11.58
2019-03-21T23:37:10.371Z,11.62
2019-03-21T23:39:41.494Z,11.51
2019-03-21T23:42:12.856Z,11.30
2019-03-21T23:44:43.717Z,11.12
2019-03-21T23:47:14.818Z,10.94
2019-03-21T23:49:46.086Z,10.86
2019-03-21T23:52:17.307Z,10.72
2019-03-21T23:54:48.371Z,10.54
2019-03-21T23:57:19.803Z,10.46
2019-03-21T23:59:50.908Z,10.44
